Time;durP1;ratioP1;P1;durP2;ratioP2;P2;SDS_P1;SDS_P2;PMS_P1;PMS_P2;Temp;Humidity;BMP_temperature;BMP_pressure;BME280_temperature;BME280_humidity;BME280_pressure;Samples;Min_cycle;Max_cycle;Signal;HPM_P1;HPM_P2
2021/12/23 00:00:20;;;;;;;128.52;94.22;;;25.30;99.90;;;;;;5117409;28;20034;-64
2021/12/23 00:02:47;;;;;;;65.25;50.33;;;25.20;99.90;;;;;;5117306;28;20039;-65
2021/12/23 00:05:14;;;;;;;67.10;45.85;;;25.30;99.90;;;;;;5117210;28;20020;-65
2021/12/23 00:07:40;;;;;;;64.63;49.45;;;25.40;99.90;;;;;;5117193;28;20026;-66
2021/12/23 00:10:09;;;;;;;49.65;40.97;;;25.40;99.90;;;;;;5117391;28;20031;-67
2021/12/23 00:12:39;;;;;;;69.93;55.55;;;25.30;99.90;;;;;;5117389;28;20020;-66
2021/12/23 00:15:23;;;;;;;47.97;36.58;;;25.30;99.90;;;;;;5116837;28;20050;-66
2021/12/23 00:25:43;;;;;;;35.38;30.00;;;25.50;99.90;;;;;;5115997;28;20032;-67
2021/12/23 00:28:10;;;;;;;35.53;26.55;;;25.50;99.90;;;;;;5110006;28;20043;-67
2021/12/23 00:30:36;;;;;;;30.85;23.42;;;25.40;99.90;;;;;;5113285;27;20388;-66
2021/12/23 00:33:03;;;;;;;34.25;22.42;;;25.40;99.90;;;;;;5116931;28;20114;-66
2021/12/23 00:35:30;;;;;;;61.00;43.35;;;25.40;99.90;;;;;;5116445;28;20443;-65
2021/12/23 00:38:12;;;;;;;35.05;27.50;;;25.30;99.90;;;;;;5116903;28;20049;-66
2021/12/23 00:40:39;;;;;;;65.15;35.30;;;25.40;99.90;;;;;;5116695;28;20020;-65
2021/12/23 00:43:05;;;;;;;17.35;13.00;;;25.40;99.90;;;;;;5115976;28;20476;-65
2021/12/23 00:45:32;;;;;;;17.75;12.60;;;25.40;99.90;;;;;;5116764;28;20032;-65
2021/12/23 00:47:59;;;;;;;19.13;11.00;;;25.50;99.90;;;;;;5116714;28;20024;-65
2021/12/23 00:50:25;;;;;;;41.45;25.88;;;25.50;99.90;;;;;;5116549;28;20043;-67
2021/12/23 00:52:56;;;;;;;109.03;30.02;;;25.50;99.90;;;;;;5116180;28;20109;-66
2021/12/23 00:55:23;;;;;;;47.40;34.20;;;25.50;99.90;;;;;;5116432;28;20039;-67
2021/12/23 00:59:23;;;;;;;22.08;16.52;;;25.50;99.90;;;;;;5091307;27;20402;-65
2021/12/23 01:01:50;;;;;;;26.70;18.15;;;25.40;99.90;;;;;;5083142;28;20033;-65
2021/12/23 01:04:16;;;;;;;24.30;18.83;;;25.50;99.90;;;;;;5089600;28;20474;-65
2021/12/23 01:06:43;;;;;;;22.83;15.35;;;25.60;99.90;;;;;;5091166;28;20032;-65
2021/12/23 01:09:11;;;;;;;28.15;15.10;;;25.60;99.90;;;;;;5073331;28;20091;-65
2021/12/23 01:11:37;;;;;;;23.08;14.65;;;25.60;99.90;;;;;;5070717;28;20112;-66
2021/12/23 01:19:18;;;;;;;20.35;13.30;;;25.50;99.90;;;;;;5071483;28;20550;-66
2021/12/23 01:21:44;;;;;;;27.35;15.20;;;25.50;99.90;;;;;;5070521;28;20526;-64
2021/12/23 01:24:11;;;;;;;22.95;12.13;;;25.60;99.90;;;;;;5070837;28;20422;-65
2021/12/23 01:26:39;;;;;;;18.85;12.45;;;25.60;99.90;;;;;;5070441;28;20024;-65
2021/12/23 01:29:07;;;;;;;23.90;13.10;;;25.50;99.90;;;;;;5071292;28;20393;-64
2021/12/23 01:31:36;;;;;;;25.05;12.80;;;25.50;99.90;;;;;;5079637;28;20587;-65
2021/12/23 01:34:03;;;;;;;22.63;12.57;;;25.60;99.90;;;;;;5090466;28;20028;-65
2021/12/23 01:36:30;;;;;;;19.52;11.90;;;25.60;99.90;;;;;;5090514;28;20388;-64
2021/12/23 01:38:57;;;;;;;20.58;10.93;;;25.60;99.90;;;;;;5088671;28;20442;-65
2021/12/23 01:41:25;;;;;;;16.65;11.65;;;25.70;99.90;;;;;;5090476;28;20028;-65
2021/12/23 01:43:53;;;;;;;14.45;10.32;;;25.70;99.90;;;;;;5090371;28;20105;-64
2021/12/23 01:46:22;;;;;;;16.80;10.55;;;25.70;99.90;;;;;;5090216;28;20028;-65
2021/12/23 01:48:49;;;;;;;24.02;10.82;;;25.80;99.90;;;;;;5090243;28;20111;-65
2021/12/23 01:51:15;;;;;;;20.23;12.73;;;25.80;99.90;;;;;;5070406;28;20393;-64
2021/12/23 01:53:43;;;;;;;20.90;13.05;;;25.80;99.90;;;;;;5069837;28;20029;-65
2021/12/23 01:56:10;;;;;;;20.77;11.30;;;25.80;99.90;;;;;;5076306;28;20032;-65
2021/12/23 01:58:39;;;;;;;20.75;13.32;;;25.80;99.90;;;;;;5072864;28;20405;-65
2021/12/23 02:01:06;;;;;;;18.25;13.35;;;26.00;99.90;;;;;;5083496;28;20029;-64
2021/12/23 02:03:34;;;;;;;19.13;13.18;;;26.00;99.90;;;;;;5090043;28;20095;-65
2021/12/23 02:06:00;;;;;;;21.10;13.73;;;26.00;99.90;;;;;;5089783;28;20026;-64
2021/12/23 02:08:27;;;;;;;24.23;13.85;;;26.00;99.90;;;;;;5089292;28;20035;-65
2021/12/23 02:10:55;;;;;;;28.48;18.60;;;26.00;99.90;;;;;;5074106;28;20032;-64
2021/12/23 02:13:22;;;;;;;34.42;25.75;;;26.00;99.90;;;;;;5076136;28;20485;-65
2021/12/23 02:15:50;;;;;;;44.83;32.95;;;26.10;99.90;;;;;;5076059;28;20032;-66
2021/12/23 02:18:17;;;;;;;57.80;40.88;;;26.10;99.90;;;;;;5076117;28;20071;-65
2021/12/23 02:20:44;;;;;;;61.95;47.03;;;26.10;99.90;;;;;;5073674;28;20021;-65
2021/12/23 02:23:10;;;;;;;65.78;51.35;;;26.10;99.90;;;;;;5076167;28;20055;-64
2021/12/23 02:25:37;;;;;;;69.22;49.72;;;26.10;99.90;;;;;;5076099;28;20028;-65
2021/12/23 02:28:07;;;;;;;68.30;52.97;;;26.10;99.90;;;;;;5071884;28;20477;-63
2021/12/23 02:30:37;;;;;;;60.17;45.40;;;26.20;99.90;;;;;;5063745;28;20051;-63
2021/12/23 02:33:06;;;;;;;53.70;44.67;;;26.20;99.90;;;;;;5075019;28;20029;-64
2021/12/23 02:35:33;;;;;;;47.95;38.33;;;26.20;99.90;;;;;;5055714;28;20025;-65
2021/12/23 02:38:00;;;;;;;47.28;38.60;;;26.30;99.90;;;;;;5055709;28;20116;-65
2021/12/23 02:40:35;;;;;;;50.70;33.25;;;26.20;99.90;;;;;;5055884;28;20058;-66
2021/12/23 02:43:10;;;;;;;38.00;28.92;;;26.30;99.90;;;;;;5069116;28;20032;-67
2021/12/23 02:45:37;;;;;;;42.63;32.75;;;26.20;99.90;;;;;;5075657;28;20048;-66
2021/12/23 02:48:04;;;;;;;52.05;41.30;;;26.30;99.90;;;;;;5073851;28;20388;-65
2021/12/23 02:50:31;;;;;;;53.00;42.53;;;26.30;99.90;;;;;;5073871;28;20040;-67
2021/12/23 02:52:58;;;;;;;47.10;39.22;;;26.40;99.90;;;;;;5055620;28;20037;-65
2021/12/23 02:55:25;;;;;;;55.33;42.65;;;26.40;99.90;;;;;;5055025;28;20440;-64
2021/12/23 02:57:52;;;;;;;45.42;36.15;;;26.50;99.90;;;;;;5063590;28;20045;-65
2021/12/23 03:00:20;;;;;;;43.03;33.85;;;26.50;99.90;;;;;;5056657;28;20021;-65
2021/12/23 03:02:47;;;;;;;36.67;30.75;;;26.50;99.90;;;;;;5066413;28;20074;-65
2021/12/23 03:05:14;;;;;;;38.20;28.42;;;26.50;99.90;;;;;;5075357;28;20020;-65
2021/12/23 03:07:40;;;;;;;30.88;26.08;;;26.60;99.90;;;;;;5058710;28;20061;-65
2021/12/23 03:10:09;;;;;;;44.35;38.25;;;26.60;99.90;;;;;;5075360;28;20107;-65
2021/12/23 03:12:36;;;;;;;112.75;84.72;;;26.60;99.90;;;;;;5073103;28;20021;-65
2021/12/23 03:15:04;;;;;;;275.25;182.10;;;26.70;99.90;;;;;;5073381;28;20036;-65
2021/12/23 03:17:31;;;;;;;62.45;46.65;;;26.70;99.90;;;;;;5075026;28;20032;-66
2021/12/23 03:19:58;;;;;;;78.82;65.70;;;26.80;99.90;;;;;;5073365;28;20020;-63
2021/12/23 03:22:24;;;;;;;44.55;34.03;;;26.80;99.90;;;;;;5055707;28;20032;-67
2021/12/23 03:24:51;;;;;;;35.35;23.95;;;26.80;99.90;;;;;;5056037;28;20033;-66
2021/12/23 03:27:18;;;;;;;31.67;24.33;;;26.80;99.90;;;;;;5054737;28;20464;-65
2021/12/23 03:29:45;;;;;;;31.05;25.05;;;26.80;99.90;;;;;;5056710;28;20056;-63
2021/12/23 03:32:11;;;;;;;31.60;22.27;;;26.90;99.90;;;;;;5063830;28;20044;-65
2021/12/23 03:34:38;;;;;;;32.70;24.08;;;26.90;99.90;;;;;;5070887;28;20058;-65
2021/12/23 03:37:05;;;;;;;52.13;38.42;;;26.90;99.90;;;;;;5061583;28;20032;-65
2021/12/23 03:39:32;;;;;;;49.13;39.47;;;27.00;99.90;;;;;;5062279;28;20437;-63
2021/12/23 03:41:58;;;;;;;72.63;48.60;;;27.00;99.90;;;;;;5063806;28;20029;-66
2021/12/23 03:44:25;;;;;;;46.45;34.70;;;27.10;99.90;;;;;;5063524;28;20452;-64
2021/12/23 03:46:54;;;;;;;94.70;67.80;;;27.10;99.90;;;;;;5064688;28;20029;-65
2021/12/23 03:49:21;;;;;;;26.35;21.65;;;27.20;99.90;;;;;;5063976;28;20509;-63
2021/12/23 03:51:48;;;;;;;26.17;20.83;;;27.20;99.90;;;;;;5059220;28;20127;-65
2021/12/23 03:54:14;;;;;;;24.05;18.52;;;27.20;99.90;;;;;;5059399;28;20124;-65
2021/12/23 03:56:44;;;;;;;23.50;18.05;;;27.20;99.90;;;;;;5057740;28;20043;-62
2021/12/23 03:59:10;;;;;;;25.48;17.58;;;27.20;99.90;;;;;;5060104;28;20431;-63
2021/12/23 04:01:37;;;;;;;13.43;11.75;;;27.30;99.90;;;;;;5066341;28;20390;-63
2021/12/23 04:04:04;;;;;;;15.23;11.93;;;27.30;99.90;;;;;;5063739;28;20020;-68
2021/12/23 04:06:31;;;;;;;16.00;12.57;;;27.40;99.90;;;;;;5059878;28;20034;-65
2021/12/23 04:08:57;;;;;;;16.70;11.52;;;27.50;99.90;;;;;;5059261;28;20024;-65
2021/12/23 04:11:24;;;;;;;17.58;11.40;;;27.60;99.90;;;;;;5060276;28;20035;-67
2021/12/23 04:13:53;;;;;;;13.65;11.50;;;27.60;99.90;;;;;;5059788;28;20030;-67
2021/12/23 04:16:21;;;;;;;11.90;7.90;;;27.60;99.90;;;;;;5059203;28;20099;-67
2021/12/23 04:18:50;;;;;;;8.13;6.60;;;27.70;99.90;;;;;;5061352;28;20052;-64
2021/12/23 04:21:18;;;;;;;17.17;9.63;;;27.80;99.90;;;;;;5061546;28;20029;-63
2021/12/23 04:23:44;;;;;;;10.20;7.63;;;27.90;99.90;;;;;;5060860;28;20021;-65
2021/12/23 04:26:12;;;;;;;8.90;6.45;;;28.00;99.90;;;;;;5060329;28;20045;-64
2021/12/23 04:31:10;;;;;;;5.60;4.40;;;28.10;99.90;;;;;;5068845;28;20099;-69
2021/12/23 04:33:37;;;;;;;9.27;4.82;;;28.10;99.90;;;;;;5057864;28;20307;-65
2021/12/23 04:36:04;;;;;;;7.38;4.40;;;28.10;99.90;;;;;;5060854;28;20112;-64
2021/12/23 04:38:31;;;;;;;5.38;3.67;;;28.10;99.90;;;;;;5064745;28;20512;-66
2021/12/23 04:40:57;;;;;;;7.55;5.88;;;28.20;99.90;;;;;;5063067;28;20029;-66
2021/12/23 04:43:24;;;;;;;5.65;4.18;;;28.20;99.90;;;;;;5064555;28;20021;-66
2021/12/23 04:45:50;;;;;;;8.23;3.92;;;28.20;99.90;;;;;;5060364;28;20028;-65
2021/12/23 04:48:17;;;;;;;31.58;25.17;;;28.20;99.90;;;;;;5058188;28;20028;-65
2021/12/23 04:50:44;;;;;;;7.45;4.68;;;28.30;99.90;;;;;;5061326;28;20070;-66
2021/12/23 04:53:11;;;;;;;10.70;6.88;;;28.40;99.90;;;;;;5062209;28;20033;-65
2021/12/23 04:55:37;;;;;;;10.07;6.88;;;28.40;99.90;;;;;;5057874;28;20107;-63
2021/12/23 04:58:04;;;;;;;6.55;4.30;;;28.40;99.90;;;;;;5058092;28;20041;-63
2021/12/23 05:00:31;;;;;;;7.50;3.65;;;28.50;99.90;;;;;;5058620;28;20409;-65
2021/12/23 05:02:58;;;;;;;6.00;3.50;;;28.60;99.90;;;;;;5062185;28;20111;-64
2021/12/23 05:05:24;;;;;;;7.75;4.07;;;28.60;99.90;;;;;;5064872;28;20024;-63
2021/12/23 05:07:51;;;;;;;8.52;4.72;;;28.60;99.90;;;;;;5070764;28;20024;-63
2021/12/23 05:10:19;;;;;;;6.30;3.90;;;28.70;99.90;;;;;;5061021;28;20572;-66
2021/12/23 05:12:47;;;;;;;14.48;4.72;;;28.70;99.90;;;;;;5053514;28;20112;-64
2021/12/23 05:15:20;;;;;;;29.17;6.10;;;28.80;99.90;;;;;;5060908;28;20039;-65
2021/12/23 05:17:48;;;;;;;12.95;4.80;;;28.80;99.90;;;;;;5065878;28;20107;-65
2021/12/23 05:20:16;;;;;;;8.32;4.38;;;28.80;99.90;;;;;;5057979;28;20029;-64
2021/12/23 05:22:43;;;;;;;18.50;4.85;;;28.90;99.90;;;;;;5067009;28;20535;-65
2021/12/23 05:25:10;;;;;;;27.77;20.83;;;28.90;99.90;;;;;;5068705;28;20059;-63
2021/12/23 05:27:38;;;;;;;15.75;11.18;;;29.20;99.90;;;;;;5068985;28;20666;-63
2021/12/23 05:30:09;;;;;;;18.98;5.63;;;29.30;99.90;;;;;;5062037;28;20037;-63
2021/12/23 05:32:35;;;;;;;9.63;5.68;;;29.20;99.90;;;;;;5055682;28;20421;-64
2021/12/23 05:35:03;;;;;;;11.32;5.18;;;29.20;99.90;;;;;;5067403;28;20048;-65
2021/12/23 05:37:30;;;;;;;23.88;9.60;;;29.20;99.90;;;;;;5072948;28;20086;-62
2021/12/23 05:39:57;;;;;;;9.07;5.38;;;29.20;99.90;;;;;;5072150;28;20067;-64
2021/12/23 05:42:23;;;;;;;24.23;5.05;;;29.20;99.90;;;;;;5053269;28;20497;-64
2021/12/23 05:44:50;;;;;;;14.48;5.72;;;29.20;99.90;;;;;;5055712;28;20032;-66
2021/12/23 05:47:17;;;;;;;13.45;9.75;;;29.10;99.90;;;;;;5058616;28;20644;-67
2021/12/23 05:49:43;;;;;;;9.95;6.75;;;29.10;99.90;;;;;;5060682;28;20056;-65
2021/12/23 05:52:10;;;;;;;11.18;6.88;;;29.10;99.90;;;;;;5054850;28;20017;-64
2021/12/23 05:54:37;;;;;;;38.80;31.92;;;29.20;99.90;;;;;;5056529;28;20524;-65
2021/12/23 05:57:04;;;;;;;26.90;20.02;;;29.20;99.90;;;;;;5057794;28;20523;-64
2021/12/23 05:59:32;;;;;;;20.90;16.00;;;29.30;99.90;;;;;;5057771;28;20024;-66
2021/12/23 06:02:01;;;;;;;20.35;9.98;;;29.30;99.90;;;;;;5057704;28;20021;-64
2021/12/23 06:04:28;;;;;;;14.60;11.38;;;29.30;99.90;;;;;;5063095;28;20029;-65
2021/12/23 06:06:54;;;;;;;27.98;15.25;;;29.30;99.90;;;;;;5062348;28;20029;-64
2021/12/23 06:09:21;;;;;;;19.90;11.63;;;29.40;99.90;;;;;;5056970;28;20029;-63
2021/12/23 06:11:48;;;;;;;11.30;9.38;;;29.40;99.90;;;;;;5063299;28;20032;-64
2021/12/23 06:14:16;;;;;;;21.98;9.95;;;29.40;99.90;;;;;;5063453;28;20367;-64
2021/12/23 06:16:43;;;;;;;17.25;8.80;;;29.30;99.90;;;;;;5067778;28;20101;-62
2021/12/23 06:19:10;;;;;;;14.73;9.65;;;29.30;99.90;;;;;;5066906;28;20389;-63
2021/12/23 06:21:37;;;;;;;10.50;8.00;;;29.30;99.90;;;;;;5064866;28;20074;-63
2021/12/23 06:24:04;;;;;;;14.95;9.10;;;29.30;99.90;;;;;;5066108;28;20047;-62
2021/12/23 06:26:31;;;;;;;11.23;9.23;;;29.30;99.90;;;;;;5064827;28;20110;-63
2021/12/23 06:28:59;;;;;;;17.25;8.75;;;29.30;99.90;;;;;;5061823;28;20082;-63
2021/12/23 06:31:26;;;;;;;11.35;8.82;;;29.30;99.90;;;;;;5064029;28;20036;-64
2021/12/23 06:33:53;;;;;;;11.90;8.20;;;29.40;99.90;;;;;;5068581;28;20029;-64
2021/12/23 06:36:20;;;;;;;14.23;8.73;;;29.40;99.90;;;;;;5074841;28;20032;-63
2021/12/23 06:38:47;;;;;;;17.90;10.90;;;29.40;99.90;;;;;;5061264;28;20115;-63
2021/12/23 06:41:15;;;;;;;14.85;10.75;;;29.40;99.90;;;;;;5062965;28;20055;-63
2021/12/23 06:43:42;;;;;;;13.45;10.95;;;29.40;99.90;;;;;;5064088;28;20052;-63
2021/12/23 06:46:09;;;;;;;13.60;10.25;;;29.40;99.90;;;;;;5063279;28;20029;-64
2021/12/23 06:48:36;;;;;;;13.27;9.23;;;29.50;99.90;;;;;;5064176;28;20048;-64
2021/12/23 06:51:03;;;;;;;14.52;10.80;;;29.60;99.90;;;;;;5063949;28;20030;-63
2021/12/23 06:53:29;;;;;;;19.38;10.52;;;29.60;99.90;;;;;;5064508;28;20028;-63
2021/12/23 06:55:57;;;;;;;111.47;81.75;;;29.60;99.90;;;;;;5060721;28;20024;-64
2021/12/23 06:58:24;;;;;;;54.58;30.17;;;29.60;99.90;;;;;;5063965;28;20049;-63
2021/12/23 07:00:52;;;;;;;14.25;9.40;;;29.60;99.90;;;;;;5062253;28;20127;-64
2021/12/23 07:03:20;;;;;;;9.02;7.10;;;29.60;99.90;;;;;;5064511;28;20036;-67
2021/12/23 07:05:52;;;;;;;10.73;6.47;;;29.70;99.90;;;;;;5066306;28;20381;-67
2021/12/23 07:08:27;;;;;;;8.93;7.10;;;29.70;99.90;;;;;;5056178;28;20089;-64
2021/12/23 07:10:54;;;;;;;9.27;7.32;;;29.80;99.90;;;;;;5061244;28;20024;-64
2021/12/23 07:13:21;;;;;;;17.92;9.55;;;29.80;99.90;;;;;;5062818;28;20036;-66
2021/12/23 07:15:48;;;;;;;16.02;9.23;;;29.70;99.90;;;;;;5062498;28;20036;-63
2021/12/23 07:18:15;;;;;;;121.07;22.13;;;29.70;99.90;;;;;;5061214;28;20052;-64
2021/12/23 07:20:42;;;;;;;78.10;58.60;;;29.80;99.90;;;;;;5066573;28;20103;-63
2021/12/23 07:23:08;;;;;;;1999.90;999.90;;;29.80;99.90;;;;;;5058097;28;20480;-65
2021/12/23 07:25:35;;;;;;;914.80;662.63;;;30.00;99.90;;;;;;5064631;28;20025;-63
2021/12/23 07:28:02;;;;;;;354.77;243.73;;;30.10;99.90;;;;;;5059332;28;20538;-63
2021/12/23 07:30:29;;;;;;;225.77;150.52;;;30.10;99.90;;;;;;5057882;28;20044;-64
2021/12/23 07:32:56;;;;;;;476.08;370.35;;;30.00;99.90;;;;;;5059863;28;20036;-64
2021/12/23 07:35:22;;;;;;;821.25;575.33;;;30.10;99.90;;;;;;5058982;28;20079;-65
2021/12/23 07:37:49;;;;;;;764.15;608.42;;;30.10;99.90;;;;;;5068750;28;20043;-64
2021/12/23 07:40:17;;;;;;;840.90;667.28;;;30.10;99.90;;;;;;5070231;28;20025;-65
2021/12/23 07:42:53;;;;;;;73.60;49.30;;;30.10;99.90;;;;;;5070892;28;20061;-63
2021/12/23 07:45:22;;;;;;;675.55;601.25;;;30.10;99.90;;;;;;5070135;28;20027;-64
2021/12/23 07:47:48;;;;;;;607.00;503.45;;;30.10;99.90;;;;;;5074669;28;20032;-65
2021/12/23 07:50:15;;;;;;;49.78;37.60;;;30.10;99.90;;;;;;5068249;28;20033;-65
2021/12/23 07:52:42;;;;;;;44.80;30.88;;;30.10;99.90;;;;;;5058985;28;20332;-65
2021/12/23 07:55:09;;;;;;;107.93;73.25;;;30.10;99.90;;;;;;5070455;28;20036;-63
2021/12/23 07:57:35;;;;;;;16.75;12.93;;;30.10;99.90;;;;;;5064562;28;20045;-65
2021/12/23 08:00:04;;;;;;;362.63;277.92;;;30.10;99.90;;;;;;5054401;28;20482;-65
2021/12/23 08:02:31;;;;;;;341.08;261.42;;;30.30;99.90;;;;;;5066098;28;20029;-65
2021/12/23 08:04:58;;;;;;;669.65;562.55;;;30.20;99.90;;;;;;5053616;28;20386;-64
2021/12/23 08:07:24;;;;;;;264.70;190.50;;;30.30;99.90;;;;;;5060334;28;20040;-64
2021/12/23 08:09:51;;;;;;;95.32;65.70;;;30.30;99.90;;;;;;5073911;28;20021;-64
2021/12/23 08:12:17;;;;;;;397.10;283.85;;;30.30;99.90;;;;;;5077625;23;20057;-64
2021/12/23 08:14:44;;;;;;;64.40;39.17;;;30.40;99.90;;;;;;5052564;28;20041;-68
2021/12/23 08:17:11;;;;;;;104.85;67.65;;;30.30;99.90;;;;;;5053125;28;20482;-64
2021/12/23 08:19:37;;;;;;;8.13;7.10;;;30.40;99.90;;;;;;5053941;28;20033;-66
2021/12/23 08:22:04;;;;;;;235.98;156.90;;;30.30;99.90;;;;;;5053201;28;20100;-65
2021/12/23 08:24:31;;;;;;;176.20;106.03;;;30.30;99.90;;;;;;5053482;28;20025;-65
2021/12/23 08:26:57;;;;;;;149.13;99.97;;;30.40;99.90;;;;;;5053971;28;20417;-63
2021/12/23 08:29:24;;;;;;;56.70;38.65;;;30.40;99.90;;;;;;5054028;28;20036;-64
2021/12/23 08:31:53;;;;;;;132.50;78.47;;;30.50;99.90;;;;;;5053490;28;20025;-66
2021/12/23 08:34:21;;;;;;;15.45;9.80;;;30.60;99.90;;;;;;5053423;28;20470;-65
2021/12/23 08:36:48;;;;;;;152.70;97.50;;;30.40;99.90;;;;;;5047912;28;20071;-64
2021/12/23 08:39:16;;;;;;;55.88;37.53;;;30.30;99.90;;;;;;5047816;28;20575;-64
2021/12/23 08:41:44;;;;;;;14.95;7.00;;;30.30;99.90;;;;;;5047233;28;20060;-63
2021/12/23 08:44:11;;;;;;;58.65;37.08;;;30.20;99.90;;;;;;5052366;28;20033;-64
2021/12/23 08:46:39;;;;;;;98.60;63.45;;;30.20;99.90;;;;;;5053104;28;20021;-64
2021/12/23 08:49:06;;;;;;;45.58;27.58;;;30.20;99.90;;;;;;5051991;28;20037;-65
2021/12/23 08:51:34;;;;;;;80.30;45.53;;;30.30;99.90;;;;;;5051494;28;20037;-65
2021/12/23 08:54:01;;;;;;;65.00;31.85;;;30.30;99.90;;;;;;5049200;28;20032;-64
2021/12/23 08:56:28;;;;;;;53.80;32.38;;;30.40;99.90;;;;;;5039565;28;20083;-64
2021/12/23 08:58:55;;;;;;;18.60;12.10;;;30.40;99.90;;;;;;5046612;28;20086;-64
2021/12/23 09:01:23;;;;;;;108.75;69.32;;;30.40;99.90;;;;;;5045531;28;20026;-65
2021/12/23 09:03:50;;;;;;;148.25;71.80;;;30.40;99.90;;;;;;5040325;28;20079;-64
2021/12/23 09:06:16;;;;;;;206.52;127.55;;;30.30;99.90;;;;;;5045661;28;20033;-68
2021/12/23 09:08:44;;;;;;;414.80;288.38;;;30.20;99.90;;;;;;5046491;28;20113;-64
2021/12/23 09:11:10;;;;;;;821.17;565.38;;;30.10;99.90;;;;;;5036728;28;20037;-62
2021/12/23 09:13:37;;;;;;;1999.90;942.70;;;30.10;99.90;;;;;;5031293;28;20045;-63
2021/12/23 09:16:04;;;;;;;1999.90;999.90;;;30.20;99.90;;;;;;5040545;28;20054;-65
2021/12/23 09:18:31;;;;;;;516.10;404.08;;;30.30;99.90;;;;;;5044034;28;20052;-63
2021/12/23 09:20:58;;;;;;;809.03;619.33;;;30.30;99.90;;;;;;5041688;28;20032;-65
2021/12/23 09:23:25;;;;;;;396.42;346.85;;;30.30;99.90;;;;;;5047592;28;20033;-66
2021/12/23 09:25:53;;;;;;;512.92;458.10;;;30.30;99.90;;;;;;5039664;28;20218;-66
2021/12/23 09:28:39;;;;;;;342.08;285.85;;;30.30;99.90;;;;;;5044173;28;20031;-64
2021/12/23 09:33:52;;;;;;;283.45;216.48;;;30.40;99.90;;;;;;5039293;28;20104;-64
2021/12/23 09:36:19;;;;;;;355.70;285.10;;;30.50;99.90;;;;;;5043888;28;20044;-64
2021/12/23 09:38:45;;;;;;;705.97;546.67;;;30.50;99.90;;;;;;5042961;28;20348;-64
2021/12/23 09:41:17;;;;;;;476.98;384.58;;;30.50;99.90;;;;;;5042256;28;20100;-65
2021/12/23 09:43:45;;;;;;;78.65;55.08;;;30.40;99.90;;;;;;5044312;28;20023;-64
2021/12/23 09:46:15;;;;;;;67.30;51.10;;;30.40;99.90;;;;;;5044620;28;20032;-66
2021/12/23 09:48:45;;;;;;;268.30;236.77;;;30.30;99.90;;;;;;5045633;28;20037;-63
2021/12/23 09:51:14;;;;;;;87.15;64.78;;;30.20;99.90;;;;;;5044235;28;20425;-64
2021/12/23 09:53:43;;;;;;;24.23;16.50;;;30.30;99.90;;;;;;5034269;28;20049;-65
2021/12/23 09:56:11;;;;;;;222.27;163.10;;;30.10;99.90;;;;;;5027728;28;20088;-64
2021/12/23 09:58:38;;;;;;;473.08;418.20;;;30.00;99.90;;;;;;5016833;28;20048;-64
2021/12/23 10:01:06;;;;;;;646.58;530.40;;;30.00;99.90;;;;;;5029381;28;20029;-64
2021/12/23 10:03:33;;;;;;;1059.72;832.13;;;30.10;99.90;;;;;;5042763;28;20106;-64
2021/12/23 10:06:00;;;;;;;774.65;643.35;;;30.10;99.90;;;;;;5038836;28;20079;-64
2021/12/23 10:08:28;;;;;;;624.95;556.05;;;30.10;99.90;;;;;;5051503;28;20040;-64
2021/12/23 10:11:17;;;;;;;589.88;516.42;;;30.10;99.90;;;;;;5054687;28;20017;-63
2021/12/23 10:38:18;;;;;;;84.65;62.13;;;30.00;99.90;;;;;;5090107;28;20340;-62
2021/12/23 10:40:50;;;;;;;122.78;91.80;;;29.90;99.90;;;;;;5094641;28;20052;-62
2021/12/23 10:43:32;;;;;;;102.18;79.53;;;29.80;99.90;;;;;;5091523;28;20024;-61
2021/12/23 10:46:03;;;;;;;145.13;106.20;;;29.70;99.90;;;;;;5090844;28;20030;-62
2021/12/23 10:48:33;;;;;;;140.07;87.85;;;29.60;99.90;;;;;;5089384;28;20059;-62
2021/12/23 10:51:06;;;;;;;990.53;758.55;;;29.70;99.90;;;;;;5094920;28;20043;-62
2021/12/23 10:59:03;;;;;;;41.93;30.97;;;29.70;99.90;;;;;;5093515;28;20032;-62
2021/12/23 11:01:31;;;;;;;50.38;33.33;;;29.80;99.90;;;;;;5096261;28;20055;-64
2021/12/23 11:04:06;;;;;;;465.98;318.92;;;29.70;99.90;;;;;;5094646;28;20469;-65
2021/12/23 11:06:44;;;;;;;556.75;452.10;;;29.60;99.90;;;;;;5094750;28;20495;-63
2021/12/23 11:38:28;;;;;;;123.50;78.27;;;29.10;99.90;;;;;;5063077;28;20031;-61
2021/12/23 11:41:01;;;;;;;105.30;62.28;;;29.10;99.90;;;;;;5063639;28;20024;-63
2021/12/23 11:43:45;;;;;;;227.18;117.93;;;29.10;99.90;;;;;;5069801;28;20027;-62
2021/12/23 11:46:14;;;;;;;625.95;401.20;;;29.00;99.90;;;;;;5073054;28;20035;-62
2021/12/23 11:48:44;;;;;;;1999.90;999.90;;;29.00;99.90;;;;;;5073453;28;20060;-63
2021/12/23 11:51:18;;;;;;;1999.90;999.90;;;28.90;99.90;;;;;;5074412;28;20044;-62
2021/12/23 11:53:50;;;;;;;1999.90;999.90;;;29.00;99.90;;;;;;5073791;28;20033;-63
2021/12/23 11:56:19;;;;;;;1015.60;650.33;;;29.00;99.90;;;;;;5074200;28;20043;-63
2021/12/23 11:58:48;;;;;;;511.83;352.13;;;29.10;99.90;;;;;;5073186;28;20296;-63
2021/12/23 12:01:20;;;;;;;249.55;169.65;;;29.10;99.90;;;;;;5073946;28;20064;-63
2021/12/23 12:04:08;;;;;;;121.03;84.53;;;28.90;99.90;;;;;;5072948;28;20025;-63
2021/12/23 12:06:48;;;;;;;94.90;60.95;;;28.80;99.90;;;;;;5073300;28;20027;-63
2021/12/23 12:09:19;;;;;;;107.32;72.57;;;28.70;99.90;;;;;;5071755;28;20078;-63
2021/12/23 12:12:00;;;;;;;321.52;224.68;;;28.70;99.90;;;;;;5063225;28;20151;-63
2021/12/23 12:14:39;;;;;;;121.72;76.28;;;28.70;99.90;;;;;;5063323;28;20075;-62
2021/12/23 12:17:26;;;;;;;642.03;390.67;;;28.70;99.90;;;;;;5069531;28;20039;-63
2021/12/23 12:19:58;;;;;;;437.75;257.67;;;28.80;99.90;;;;;;5064087;28;20032;-62
2021/12/23 12:22:32;;;;;;;71.40;41.10;;;28.80;99.90;;;;;;5058937;28;20052;-63
2021/12/23 12:24:58;;;;;;;48.47;26.60;;;28.70;99.90;;;;;;5063341;28;20052;-63
2021/12/23 12:27:30;;;;;;;46.05;25.00;;;28.70;99.90;;;;;;5059236;28;20032;-62
2021/12/23 12:30:07;;;;;;;38.75;25.40;;;28.70;99.90;;;;;;5091122;28;20040;-63
2021/12/23 12:32:36;;;;;;;47.88;28.00;;;28.60;99.90;;;;;;5092099;28;20463;-62
2021/12/23 12:35:13;;;;;;;63.22;38.13;;;28.60;99.90;;;;;;5089627;28;20373;-62
2021/12/23 12:37:42;;;;;;;44.20;26.40;;;28.60;99.90;;;;;;5083430;28;20036;-63
2021/12/23 12:40:10;;;;;;;34.13;20.13;;;28.50;99.90;;;;;;5082232;28;20016;-63
2021/12/23 12:42:43;;;;;;;29.17;17.33;;;28.50;99.90;;;;;;5083834;28;20411;-62
2021/12/23 12:45:14;;;;;;;27.73;19.50;;;28.40;99.90;;;;;;5084434;28;20024;-63
2021/12/23 12:47:52;;;;;;;41.85;20.25;;;28.50;99.90;;;;;;5083930;28;20385;-63
2021/12/23 12:50:26;;;;;;;26.02;16.77;;;28.50;99.90;;;;;;5088451;28;20123;-64
2021/12/23 12:52:55;;;;;;;31.02;19.02;;;28.50;99.90;;;;;;5092272;28;20070;-65
2021/12/23 12:55:26;;;;;;;29.02;16.50;;;28.60;99.90;;;;;;5088676;28;20028;-63
2021/12/23 12:57:57;;;;;;;35.22;18.95;;;28.60;99.90;;;;;;5082541;28;20033;-63
2021/12/23 13:00:36;;;;;;;36.25;22.25;;;28.60;99.90;;;;;;5086999;28;20036;-63
2021/12/23 13:03:08;;;;;;;35.22;20.70;;;28.60;99.90;;;;;;5091259;28;20024;-63
2021/12/23 13:05:42;;;;;;;31.17;17.45;;;28.50;99.90;;;;;;5086021;28;20021;-63
2021/12/23 13:08:19;;;;;;;31.73;20.33;;;28.50;99.90;;;;;;5079644;28;20482;-63
2021/12/23 13:10:49;;;;;;;32.42;19.08;;;28.40;99.90;;;;;;5084843;28;20024;-63
2021/12/23 13:13:33;;;;;;;31.80;16.88;;;28.40;99.90;;;;;;5076168;28;20116;-63
2021/12/23 13:16:13;;;;;;;26.88;16.90;;;28.40;99.90;;;;;;5080421;28;20012;-63
2021/12/23 13:18:40;;;;;;;29.42;15.65;;;28.30;99.90;;;;;;5079936;28;20074;-62
2021/12/23 13:21:06;;;;;;;34.78;19.40;;;28.40;99.90;;;;;;5089746;28;20066;-61
2021/12/23 13:23:40;;;;;;;45.78;24.27;;;28.40;99.90;;;;;;5090678;28;20027;-62
2021/12/23 13:26:19;;;;;;;42.20;21.15;;;28.30;99.90;;;;;;5093626;28;20108;-63
2021/12/23 13:28:55;;;;;;;33.90;23.55;;;28.30;99.90;;;;;;5093302;28;20044;-62
2021/12/23 13:31:26;;;;;;;35.95;20.52;;;28.30;99.90;;;;;;5093410;28;20107;-61
2021/12/23 13:33:59;;;;;;;40.38;22.42;;;28.30;99.90;;;;;;5092838;28;20028;-63
2021/12/23 13:36:32;;;;;;;30.73;19.10;;;28.20;99.90;;;;;;5090035;28;20461;-62
2021/12/23 13:39:03;;;;;;;32.35;18.80;;;28.10;99.90;;;;;;5092619;28;20043;-63
2021/12/23 13:41:36;;;;;;;26.05;17.65;;;28.10;99.90;;;;;;5092675;28;20126;-62
2021/12/23 13:44:13;;;;;;;;;;;28.00;99.90;;;;;;5090863;28;20432;-63
2021/12/23 13:46:41;;;;;;;39.50;20.30;;;28.00;99.90;;;;;;5088500;28;19912;-62
2021/12/23 13:49:09;;;;;;;56.90;36.65;;;28.10;99.90;;;;;;5083505;28;20618;-61
2021/12/23 13:51:38;;;;;;;43.90;26.80;;;28.10;99.90;;;;;;5082769;28;20036;-62